createdAt,value
2023-05-23T00:01:22.753Z,16.10
2023-05-23T00:03:49.777Z,16.10
2023-05-23T00:06:21.210Z,15.80
2023-05-23T00:08:48.313Z,15.80
2023-05-23T00:11:15.214Z,15.90
2023-05-23T00:13:42.355Z,16.00
2023-05-23T00:16:09.680Z,16.10
2023-05-23T00:18:37.148Z,16.10
2023-05-23T00:21:03.900Z,16.00
2023-05-23T00:23:30.525Z,16.00
2023-05-23T00:25:58.490Z,16.00
2023-05-23T00:28:25.906Z,16.00
2023-05-23T00:30:52.751Z,15.90
2023-05-23T00:33:22.249Z,15.80
2023-05-23T00:35:49.392Z,15.80
2023-05-23T00:38:16.397Z,15.80
2023-05-23T00:40:43.127Z,15.90
2023-05-23T00:43:10.026Z,15.80
2023-05-23T00:45:36.760Z,15.80
2023-05-23T00:48:03.949Z,15.80
2023-05-23T00:50:30.876Z,15.80
2023-05-23T00:52:58.863Z,15.80
2023-05-23T00:55:25.607Z,15.70
2023-05-23T00:57:58.190Z,15.70
2023-05-23T01:00:26.094Z,15.70
2023-05-23T01:02:53.584Z,15.60
2023-05-23T01:05:22.592Z,15.40
2023-05-23T01:07:50.350Z,15.20
2023-05-23T01:10:18.253Z,15.20
2023-05-23T01:12:57.879Z,15.10
2023-05-23T01:15:29.041Z,15.10
2023-05-23T01:18:05.045Z,15.10
2023-05-23T01:20:36.282Z,15.00
2023-05-23T01:23:21.699Z,15.10
2023-05-23T01:25:59.299Z,15.00
2023-05-23T01:28:28.463Z,15.10
2023-05-23T01:30:57.446Z,15.10
2023-05-23T01:33:25.380Z,15.10
2023-05-23T01:35:52.115Z,15.20
2023-05-23T01:38:18.764Z,15.20
2023-05-23T01:40:45.491Z,15.20
2023-05-23T01:43:12.174Z,15.20
2023-05-23T01:45:39.216Z,15.10
2023-05-23T01:48:06.337Z,15.10
2023-05-23T01:50:33.418Z,15.10
2023-05-23T01:53:00.951Z,15.20
2023-05-23T01:55:27.961Z,15.10
2023-05-23T01:57:55.492Z,15.00
2023-05-23T02:00:22.340Z,15.00
2023-05-23T02:02:49.145Z,15.00
2023-05-23T02:05:15.834Z,15.00
2023-05-23T02:07:42.583Z,15.00
2023-05-23T02:10:09.753Z,15.00
2023-05-23T02:12:36.537Z,15.00
2023-05-23T02:15:03.364Z,15.00
2023-05-23T02:17:30.766Z,14.90
2023-05-23T02:19:57.658Z,14.90
2023-05-23T02:22:25.569Z,14.70
2023-05-23T02:24:52.456Z,14.70
2023-05-23T02:27:19.399Z,14.70
2023-05-23T02:29:46.111Z,14.60
2023-05-23T02:32:12.844Z,14.70
2023-05-23T02:34:40.436Z,14.60
2023-05-23T02:37:07.377Z,14.60
2023-05-23T02:39:35.911Z,14.60
2023-05-23T02:42:02.980Z,14.60
2023-05-23T02:44:29.734Z,14.40
2023-05-23T02:46:56.418Z,14.40
2023-05-23T02:49:23.088Z,14.50
2023-05-23T02:51:49.830Z,14.40
2023-05-23T02:54:16.866Z,14.40
2023-05-23T02:56:44.609Z,14.50
2023-05-23T02:59:12.337Z,14.60
2023-05-23T03:01:39.088Z,14.60
2023-05-23T03:04:05.988Z,14.50
2023-05-23T03:06:34.297Z,14.50
2023-05-23T03:09:01.390Z,14.40
2023-05-23T03:11:30.015Z,14.40
2023-05-23T03:13:56.866Z,14.40
2023-05-23T03:16:24.417Z,14.40
2023-05-23T03:18:51.292Z,14.50
2023-05-23T03:21:18.221Z,14.50
2023-05-23T03:23:45.057Z,14.50
2023-05-23T03:26:12.002Z,14.50
2023-05-23T03:28:38.809Z,14.40
2023-05-23T03:31:05.795Z,14.30
2023-05-23T03:33:32.581Z,14.30
2023-05-23T03:35:59.390Z,14.20
2023-05-23T03:38:26.301Z,14.20
2023-05-23T03:40:53.135Z,14.30
2023-05-23T03:43:19.914Z,14.40
2023-05-23T03:45:47.564Z,14.40
2023-05-23T03:48:14.597Z,14.50
2023-05-23T03:50:41.512Z,14.50
2023-05-23T03:53:08.410Z,14.60
2023-05-23T03:55:35.235Z,14.60
2023-05-23T03:58:02.100Z,14.60
2023-05-23T04:00:28.904Z,14.70
2023-05-23T04:02:56.023Z,14.70
2023-05-23T04:05:22.943Z,14.70
2023-05-23T04:07:50.069Z,14.70
2023-05-23T04:10:16.995Z,14.80
2023-05-23T04:12:43.805Z,14.80
2023-05-23T04:15:11.477Z,14.80
2023-05-23T04:17:39.120Z,14.60
2023-05-23T04:20:07.438Z,14.60
2023-05-23T04:22:34.151Z,14.60
2023-05-23T04:25:00.835Z,14.60
2023-05-23T04:27:27.493Z,14.70
2023-05-23T04:29:54.158Z,14.70
2023-05-23T04:32:23.109Z,14.80
2023-05-23T04:34:50.150Z,14.80
2023-05-23T04:37:17.456Z,14.90
2023-05-23T04:39:44.277Z,15.10
2023-05-23T04:42:11.937Z,15.20
2023-05-23T04:44:39.948Z,15.20
2023-05-23T04:47:08.957Z,15.40
2023-05-23T04:49:39.880Z,15.50
2023-05-23T04:52:06.572Z,15.60
2023-05-23T04:54:33.241Z,15.70
2023-05-23T04:57:00.183Z,15.80
2023-05-23T04:59:26.876Z,15.90
2023-05-23T05:01:53.539Z,16.10
2023-05-23T05:04:20.604Z,16.20
2023-05-23T05:06:48.629Z,16.30
2023-05-23T05:09:15.343Z,16.30
2023-05-23T05:11:42.014Z,16.40
2023-05-23T05:14:08.731Z,16.40
2023-05-23T05:16:36.433Z,16.50
2023-05-23T05:19:03.629Z,16.50
2023-05-23T05:21:31.413Z,16.60
2023-05-23T05:23:59.886Z,16.70
2023-05-23T05:26:26.957Z,16.70
2023-05-23T05:28:53.741Z,16.90
2023-05-23T05:31:20.973Z,16.90
2023-05-23T05:33:47.720Z,16.90
2023-05-23T05:36:14.362Z,16.90
2023-05-23T05:38:41.325Z,16.90
2023-05-23T05:41:09.305Z,17.00
2023-05-23T05:43:36.250Z,17.00
2023-05-23T05:46:03.091Z,17.00
2023-05-23T05:48:29.754Z,17.10
2023-05-23T05:50:56.425Z,17.00
2023-05-23T05:53:23.090Z,17.10
2023-05-23T05:55:49.739Z,17.00
2023-05-23T05:58:16.417Z,17.00
2023-05-23T06:00:43.700Z,17.00
2023-05-23T06:03:10.569Z,17.10
2023-05-23T06:05:37.610Z,17.10
2023-05-23T06:08:04.907Z,17.10
2023-05-23T06:10:31.659Z,17.10
2023-05-23T06:12:59.014Z,17.20
2023-05-23T06:15:26.384Z,17.20
2023-05-23T06:17:53.230Z,17.30
2023-05-23T06:20:20.027Z,17.40
2023-05-23T06:22:46.833Z,17.40
2023-05-23T06:25:13.568Z,17.50
2023-05-23T06:27:40.410Z,17.50
2023-05-23T06:30:07.428Z,17.60
2023-05-23T06:32:34.102Z,17.60
2023-05-23T06:35:00.764Z,17.60
2023-05-23T06:37:27.424Z,17.70
2023-05-23T06:39:54.069Z,17.80
2023-05-23T06:42:20.740Z,17.90
2023-05-23T06:44:47.391Z,18.00
2023-05-23T06:47:14.075Z,18.10
2023-05-23T06:49:40.721Z,18.10
2023-05-23T06:52:07.366Z,18.30
2023-05-23T06:54:34.003Z,18.30
2023-05-23T06:57:00.776Z,18.40
2023-05-23T06:59:27.371Z,18.40
2023-05-23T07:01:53.995Z,18.40
2023-05-23T07:04:20.640Z,18.40
2023-05-23T07:06:47.483Z,18.50
2023-05-23T07:09:14.164Z,18.50
2023-05-23T07:11:41.244Z,18.50
2023-05-23T07:14:07.964Z,18.50
2023-05-23T07:16:34.734Z,18.50
2023-05-23T07:19:01.696Z,18.50
2023-05-23T07:21:28.446Z,18.50
2023-05-23T07:23:55.075Z,18.60
2023-05-23T07:26:21.729Z,18.60
2023-05-23T07:28:48.382Z,18.80
2023-05-23T07:31:15.112Z,19.00
2023-05-23T07:33:41.817Z,19.20
2023-05-23T07:36:08.947Z,19.40
2023-05-23T07:38:35.589Z,19.70
2023-05-23T07:41:10.604Z,19.80
2023-05-23T07:43:39.138Z,20.10
2023-05-23T07:46:05.952Z,20.40
2023-05-23T07:48:33.133Z,20.60
2023-05-23T07:50:59.822Z,20.50
2023-05-23T07:53:26.796Z,20.60
2023-05-23T07:55:53.432Z,20.70
2023-05-23T07:58:20.120Z,20.90
2023-05-23T08:00:46.755Z,21.00
2023-05-23T08:03:13.623Z,20.90
2023-05-23T08:05:40.359Z,20.70
2023-05-23T08:08:07.071Z,20.70
2023-05-23T08:10:33.796Z,20.90
2023-05-23T08:13:01.159Z,21.00
2023-05-23T08:15:28.948Z,20.80
2023-05-23T08:17:57.390Z,20.60
2023-05-23T08:20:30.872Z,20.60
2023-05-23T08:23:01.591Z,20.60
2023-05-23T08:25:32.061Z,20.60
2023-05-23T08:27:59.053Z,20.70
2023-05-23T08:30:26.081Z,20.90
2023-05-23T08:32:53.382Z,21.10
2023-05-23T08:35:20.113Z,21.30
2023-05-23T08:37:46.866Z,21.30
2023-05-23T08:40:21.408Z,21.10
2023-05-23T08:42:49.003Z,20.80
2023-05-23T08:45:16.285Z,20.50
2023-05-23T08:47:43.796Z,20.30
2023-05-23T08:50:14.699Z,20.20
2023-05-23T08:52:45.036Z,20.20
2023-05-23T08:55:12.192Z,20.40
2023-05-23T08:57:39.263Z,20.60
2023-05-23T09:00:10.956Z,20.70
2023-05-23T09:02:38.197Z,20.60
2023-05-23T09:05:05.763Z,20.70
2023-05-23T09:07:32.432Z,20.70
2023-05-23T09:09:59.124Z,20.70
2023-05-23T09:12:26.012Z,20.70
2023-05-23T09:14:52.875Z,20.70
2023-05-23T09:17:19.571Z,20.80
2023-05-23T09:19:49.592Z,20.90
2023-05-23T09:22:16.338Z,20.90
2023-05-23T09:24:43.563Z,20.90
2023-05-23T09:27:10.271Z,20.80
2023-05-23T09:29:37.512Z,20.80
2023-05-23T09:32:11.063Z,20.90
2023-05-23T09:34:40.423Z,21.00
2023-05-23T09:37:07.302Z,21.00
2023-05-23T09:39:37.296Z,20.80
2023-05-23T09:42:04.134Z,20.80
2023-05-23T09:44:30.760Z,20.80
2023-05-23T09:46:57.468Z,20.90
2023-05-23T09:49:26.464Z,21.00
2023-05-23T09:52:00.168Z,21.10
2023-05-23T09:54:27.256Z,21.40
2023-05-23T09:56:56.205Z,21.70
2023-05-23T09:59:24.336Z,22.00
2023-05-23T10:01:51.629Z,22.40
2023-05-23T10:04:21.482Z,22.40
2023-05-23T10:06:54.080Z,22.40
2023-05-23T10:09:22.509Z,22.50
2023-05-23T10:12:12.526Z,22.50
2023-05-23T10:14:41.312Z,22.60
2023-05-23T10:17:11.053Z,22.70
2023-05-23T10:19:47.371Z,22.90
2023-05-23T10:22:15.040Z,23.10
2023-05-23T10:24:42.001Z,23.30
2023-05-23T10:27:09.228Z,23.50
2023-05-23T10:29:36.716Z,23.60
2023-05-23T10:32:04.668Z,23.60
2023-05-23T10:34:38.592Z,23.30
2023-05-23T10:37:06.285Z,23.00
2023-05-23T10:39:32.916Z,22.70
2023-05-23T10:42:01.896Z,22.50
2023-05-23T10:44:32.122Z,22.40
2023-05-23T10:47:01.722Z,22.30
2023-05-23T10:49:39.390Z,22.20
2023-05-23T10:52:07.383Z,22.00
2023-05-23T10:54:41.768Z,21.90
2023-05-23T10:57:09.988Z,22.00
2023-05-23T10:59:37.322Z,22.30
2023-05-23T11:02:05.624Z,22.60
2023-05-23T11:04:32.323Z,22.80
2023-05-23T11:06:58.997Z,23.00
2023-05-23T11:09:25.699Z,23.00
2023-05-23T11:12:06.008Z,22.90
2023-05-23T11:14:32.933Z,22.60
2023-05-23T11:17:19.948Z,22.20
2023-05-23T11:20:13.564Z,21.90
2023-05-23T11:22:42.328Z,21.60
2023-05-23T11:25:10.341Z,21.30
2023-05-23T11:27:38.043Z,21.10
2023-05-23T11:30:15.038Z,20.80
2023-05-23T11:32:42.514Z,20.60
2023-05-23T11:35:12.274Z,20.20
2023-05-23T11:37:39.657Z,20.00
2023-05-23T11:40:24.935Z,19.90
2023-05-23T11:42:54.119Z,19.80
2023-05-23T11:45:21.284Z,19.90
2023-05-23T11:47:47.997Z,19.90
2023-05-23T11:50:15.739Z,19.90
2023-05-23T11:52:42.685Z,19.90
2023-05-23T11:55:09.730Z,19.90
2023-05-23T11:57:39.649Z,20.10
2023-05-23T12:00:08.115Z,20.20
2023-05-23T12:02:41.581Z,20.30
2023-05-23T12:05:13.790Z,20.40
2023-05-23T12:07:47.791Z,20.40
2023-05-23T12:10:15.498Z,20.40
2023-05-23T12:12:43.058Z,20.40
2023-05-23T12:15:10.418Z,20.30
2023-05-23T12:17:46.631Z,20.30
2023-05-23T12:20:13.753Z,20.40
2023-05-23T12:22:41.491Z,20.50
2023-05-23T12:25:09.039Z,20.60
2023-05-23T12:27:37.187Z,20.60
2023-05-23T12:30:09.530Z,20.60
2023-05-23T12:32:39.845Z,20.60
2023-05-23T12:35:07.165Z,20.70
2023-05-23T12:37:33.873Z,20.80
2023-05-23T12:40:29.897Z,20.80
2023-05-23T12:42:56.981Z,20.70
2023-05-23T12:45:34.101Z,20.70
2023-05-23T12:48:01.959Z,20.60
2023-05-23T12:50:28.663Z,20.50
2023-05-23T12:52:55.968Z,20.50
2023-05-23T12:55:22.728Z,20.60
2023-05-23T12:57:49.395Z,20.70
2023-05-23T13:00:16.588Z,20.80
2023-05-23T13:02:43.342Z,20.30
2023-05-23T13:05:10.077Z,20.00
2023-05-23T13:07:37.929Z,19.90
2023-05-23T13:10:04.975Z,20.10
2023-05-23T13:12:32.945Z,20.20
2023-05-23T13:14:59.778Z,20.50
2023-05-23T13:17:26.472Z,20.70
2023-05-23T13:19:53.153Z,20.90
2023-05-23T13:22:19.801Z,21.00
2023-05-23T13:24:46.556Z,21.10
2023-05-23T13:27:13.263Z,21.10
2023-05-23T13:29:40.032Z,21.10
2023-05-23T13:32:06.864Z,21.20
2023-05-23T13:34:35.276Z,21.10
2023-05-23T13:37:01.938Z,21.10
2023-05-23T13:39:28.578Z,21.10
2023-05-23T13:41:55.957Z,21.00
2023-05-23T13:44:22.613Z,20.80
2023-05-23T13:46:49.333Z,20.50
2023-05-23T13:49:16.206Z,20.40
2023-05-23T13:51:44.293Z,20.30
2023-05-23T13:54:11.027Z,20.20
2023-05-23T13:56:39.797Z,20.20
2023-05-23T13:59:06.633Z,20.10
2023-05-23T14:01:33.370Z,20.10
2023-05-23T14:04:00.200Z,20.00
2023-05-23T14:06:26.857Z,19.90
2023-05-23T14:08:53.510Z,19.90
2023-05-23T14:11:20.268Z,19.90
2023-05-23T14:13:46.934Z,19.90
2023-05-23T14:16:13.604Z,20.10
2023-05-23T14:18:40.299Z,20.30
2023-05-23T14:21:06.981Z,20.50
2023-05-23T14:23:33.645Z,20.60
2023-05-23T14:26:00.313Z,20.60
2023-05-23T14:28:27.620Z,20.60
2023-05-23T14:30:55.580Z,20.70
2023-05-23T14:33:22.570Z,20.60
2023-05-23T14:35:49.390Z,20.50
2023-05-23T14:38:16.273Z,20.40
2023-05-23T14:40:44.095Z,20.30
2023-05-23T14:43:11.581Z,20.30
2023-05-23T14:45:38.530Z,20.40
2023-05-23T14:48:05.624Z,20.70
2023-05-23T14:50:32.380Z,20.80
2023-05-23T14:52:59.727Z,20.90
2023-05-23T14:55:26.475Z,20.90
2023-05-23T14:57:53.155Z,20.90
2023-05-23T15:00:19.995Z,20.90
2023-05-23T15:02:46.921Z,21.00
2023-05-23T15:05:15.618Z,21.10
2023-05-23T15:07:42.582Z,20.90
2023-05-23T15:10:09.405Z,20.70
2023-05-23T15:12:36.465Z,20.60
2023-05-23T15:15:04.085Z,20.40
2023-05-23T15:17:31.203Z,20.20
2023-05-23T15:19:57.959Z,20.00
2023-05-23T15:22:37.785Z,19.90
2023-05-23T15:25:06.987Z,19.90
2023-05-23T15:27:33.658Z,19.80
2023-05-23T15:30:00.418Z,19.90
2023-05-23T15:32:27.138Z,19.80
2023-05-23T15:34:53.909Z,19.70
2023-05-23T15:37:20.659Z,19.60
2023-05-23T15:39:48.684Z,19.50
2023-05-23T15:42:15.726Z,19.40
2023-05-23T15:44:42.660Z,19.20
2023-05-23T15:47:10.082Z,19.10
2023-05-23T15:49:36.774Z,19.10
2023-05-23T15:52:03.509Z,18.90
2023-05-23T15:54:30.240Z,18.80
2023-05-23T15:56:56.906Z,18.60
2023-05-23T15:59:23.607Z,18.50
2023-05-23T16:01:50.493Z,18.50
2023-05-23T16:04:17.591Z,18.20
2023-05-23T16:06:44.315Z,18.10
2023-05-23T16:09:11.032Z,17.80
2023-05-23T16:11:38.781Z,17.70
2023-05-23T16:14:05.834Z,17.50
2023-05-23T16:16:32.695Z,17.50
2023-05-23T16:18:59.480Z,17.50
2023-05-23T16:21:26.460Z,17.50
2023-05-23T16:23:53.121Z,17.40
2023-05-23T16:26:20.929Z,17.50
2023-05-23T16:28:47.648Z,17.60
2023-05-23T16:31:15.398Z,17.60
2023-05-23T16:33:42.776Z,17.60
2023-05-23T16:36:09.508Z,17.70
2023-05-23T16:38:36.190Z,17.80
2023-05-23T16:41:02.923Z,17.90
2023-05-23T16:43:29.758Z,18.00
2023-05-23T16:45:56.436Z,18.10
2023-05-23T16:48:23.133Z,18.20
2023-05-23T16:50:49.809Z,18.30
2023-05-23T16:53:16.752Z,18.30
2023-05-23T16:55:45.241Z,18.40
2023-05-23T16:58:12.297Z,18.30
2023-05-23T17:00:39.579Z,18.40
2023-05-23T17:03:06.484Z,18.40
2023-05-23T17:05:33.376Z,18.50
2023-05-23T17:08:00.236Z,18.50
2023-05-23T17:10:26.925Z,18.50
2023-05-23T17:12:53.694Z,18.50
2023-05-23T17:15:20.508Z,18.50
2023-05-23T17:17:47.541Z,18.40
2023-05-23T17:20:14.373Z,18.40
2023-05-23T17:22:41.832Z,18.30
2023-05-23T17:25:08.886Z,18.20
2023-05-23T17:27:35.582Z,18.20
2023-05-23T17:30:05.095Z,18.20
2023-05-23T17:32:31.952Z,18.10
2023-05-23T17:34:58.849Z,17.80
2023-05-23T17:37:26.528Z,17.90
2023-05-23T17:39:55.929Z,17.90
2023-05-23T17:42:24.703Z,17.80
2023-05-23T17:44:51.379Z,17.70
2023-05-23T17:47:18.514Z,17.70
2023-05-23T17:49:45.257Z,17.80
2023-05-23T17:52:14.845Z,17.90
2023-05-23T17:54:42.101Z,17.80
2023-05-23T17:57:08.912Z,17.90
2023-05-23T17:59:36.087Z,17.90
2023-05-23T18:02:04.854Z,17.90
2023-05-23T18:04:31.956Z,17.90
2023-05-23T18:06:58.925Z,17.90
2023-05-23T18:09:25.595Z,17.90
2023-05-23T18:11:52.284Z,17.90
2023-05-23T18:14:18.986Z,17.80
2023-05-23T18:16:46.080Z,17.90
2023-05-23T18:19:12.825Z,17.80
2023-05-23T18:21:39.671Z,17.80
2023-05-23T18:24:07.455Z,17.80
2023-05-23T18:26:34.129Z,17.80
2023-05-23T18:29:02.123Z,17.80
2023-05-23T18:31:28.826Z,17.70
2023-05-23T18:33:55.679Z,17.70
2023-05-23T18:36:22.399Z,17.70
2023-05-23T18:38:49.076Z,17.60
2023-05-23T18:41:15.791Z,17.60
2023-05-23T18:43:42.484Z,17.60
2023-05-23T18:46:09.471Z,17.60
2023-05-23T18:48:36.528Z,17.60
2023-05-23T18:51:03.214Z,17.50
2023-05-23T18:53:29.954Z,17.50
2023-05-23T18:55:56.646Z,17.50
2023-05-23T18:58:23.623Z,17.50
2023-05-23T19:00:50.463Z,17.40
2023-05-23T19:03:17.845Z,17.30
2023-05-23T19:05:44.932Z,17.30
2023-05-23T19:08:11.754Z,17.30
2023-05-23T19:10:38.458Z,17.30
2023-05-23T19:13:05.112Z,17.30
2023-05-23T19:15:32.552Z,17.30
2023-05-23T19:17:59.313Z,17.30
2023-05-23T19:20:26.085Z,17.30
2023-05-23T19:22:52.967Z,17.20
2023-05-23T19:25:20.368Z,17.30
2023-05-23T19:27:47.048Z,17.30
2023-05-23T19:30:13.748Z,17.30
2023-05-23T19:32:40.525Z,17.30
2023-05-23T19:35:08.290Z,17.30
2023-05-23T19:37:35.101Z,17.30
2023-05-23T19:40:01.852Z,17.30
2023-05-23T19:42:28.586Z,17.30
2023-05-23T19:44:55.247Z,17.30
2023-05-23T19:47:22.075Z,17.30
2023-05-23T19:49:48.969Z,17.30
2023-05-23T19:52:15.649Z,17.20
2023-05-23T19:54:42.364Z,17.30
2023-05-23T19:57:09.115Z,17.20
2023-05-23T19:59:35.811Z,17.20
2023-05-23T20:02:02.573Z,17.20
2023-05-23T20:04:29.451Z,17.20
2023-05-23T20:06:56.201Z,17.20
2023-05-23T20:09:23.213Z,17.20
2023-05-23T20:11:49.955Z,17.20
2023-05-23T20:14:16.705Z,17.20
2023-05-23T20:16:43.459Z,17.20
2023-05-23T20:19:10.327Z,17.20
2023-05-23T20:21:37.051Z,17.20
2023-05-23T20:24:03.835Z,17.10
2023-05-23T20:26:30.525Z,17.10
2023-05-23T20:28:57.221Z,17.10
2023-05-23T20:31:24.017Z,17.10
2023-05-23T20:33:52.309Z,17.10
2023-05-23T20:36:20.889Z,17.10
2023-05-23T20:38:47.935Z,17.10
2023-05-23T20:41:14.778Z,17.10
2023-05-23T20:43:41.509Z,17.10
2023-05-23T20:46:11.051Z,17.10
2023-05-23T20:48:37.769Z,17.00
2023-05-23T20:51:05.879Z,17.00
2023-05-23T20:53:32.738Z,17.00
2023-05-23T20:55:59.738Z,16.90
2023-05-23T20:58:26.825Z,16.90
2023-05-23T21:00:53.741Z,16.90
2023-05-23T21:03:20.554Z,16.90
2023-05-23T21:05:47.375Z,17.00
2023-05-23T21:08:14.055Z,17.00
2023-05-23T21:10:40.962Z,17.00
2023-05-23T21:13:08.094Z,17.00
2023-05-23T21:15:34.916Z,17.00
2023-05-23T21:18:01.633Z,16.90
2023-05-23T21:20:29.219Z,16.90
2023-05-23T21:22:56.026Z,16.90
2023-05-23T21:25:22.882Z,17.00
2023-05-23T21:27:49.570Z,17.00
2023-05-23T21:30:16.303Z,16.90
2023-05-23T21:32:43.630Z,16.90
2023-05-23T21:35:10.437Z,16.90
2023-05-23T21:37:37.158Z,16.90
2023-05-23T21:40:03.958Z,16.90
2023-05-23T21:42:31.113Z,16.90
2023-05-23T21:44:58.088Z,16.80
2023-05-23T21:47:26.306Z,16.80
2023-05-23T21:49:53.014Z,16.80
2023-05-23T21:52:19.735Z,16.80
2023-05-23T21:54:48.743Z,16.80
2023-05-23T21:57:15.814Z,16.80
2023-05-23T21:59:42.712Z,16.70
2023-05-23T22:02:11.314Z,16.70
2023-05-23T22:04:38.057Z,16.70
2023-05-23T22:07:04.833Z,16.70
2023-05-23T22:09:31.671Z,16.70
2023-05-23T22:11:58.314Z,16.70
2023-05-23T22:14:25.102Z,16.70
2023-05-23T22:16:52.236Z,16.70
2023-05-23T22:19:21.060Z,16.70
2023-05-23T22:21:47.837Z,16.70
2023-05-23T22:24:14.496Z,16.70
2023-05-23T22:26:41.161Z,16.70
2023-05-23T22:29:08.005Z,16.70
2023-05-23T22:31:35.521Z,16.70
2023-05-23T22:34:02.695Z,16.70
2023-05-23T22:36:29.395Z,16.70
2023-05-23T22:38:56.500Z,16.70
2023-05-23T22:41:23.584Z,16.70
2023-05-23T22:43:50.731Z,16.60
2023-05-23T22:46:17.502Z,16.60
2023-05-23T22:48:45.036Z,16.60
2023-05-23T22:51:13.341Z,16.60
2023-05-23T22:53:41.187Z,16.60
2023-05-23T22:56:07.947Z,16.50
2023-05-23T22:58:34.708Z,16.50
2023-05-23T23:01:01.528Z,16.40
2023-05-23T23:03:28.362Z,16.40
2023-05-23T23:05:55.443Z,16.30
2023-05-23T23:08:22.620Z,16.30
2023-05-23T23:10:49.311Z,16.30
2023-05-23T23:13:16.159Z,16.20
2023-05-23T23:15:44.025Z,16.30
2023-05-23T23:18:13.487Z,16.30
2023-05-23T23:20:40.856Z,16.30
2023-05-23T23:23:07.945Z,16.30
2023-05-23T23:25:36.625Z,16.30
2023-05-23T23:28:03.416Z,16.30
2023-05-23T23:30:30.238Z,16.30
2023-05-23T23:32:57.024Z,16.30
2023-05-23T23:35:23.712Z,16.20
2023-05-23T23:37:50.556Z,16.20
2023-05-23T23:40:17.279Z,16.10
2023-05-23T23:42:43.989Z,16.10
2023-05-23T23:45:11.023Z,16.10
2023-05-23T23:50:04.708Z,15.90
2023-05-23T23:52:31.353Z,15.90
2023-05-23T23:54:58.187Z,15.80
2023-05-23T23:57:24.935Z,15.80
2023-05-23T23:59:51.669Z,15.80
